Time;durP1;ratioP1;P1;durP2;ratioP2;P2;SDS_P1;SDS_P2;PMS_P1;PMS_P2;Temp;Humidity;BMP_temperature;BMP_pressure;BME280_temperature;BME280_humidity;BME280_pressure;Samples;Min_cycle;Max_cycle;Signal;HPM_P1;HPM_P2
2022/04/18 00:02:06;;;;;;;;;;;12.90;99.90;;;;;;5092379;28;20014;-68
2022/04/18 00:04:33;;;;;;;;;;;12.90;99.90;;;;;;5091853;28;19978;-69
2022/04/18 00:07:03;;;;;;;;;;;12.80;99.90;;;;;;5092134;28;20095;-68
2022/04/18 00:09:33;;;;;;;;;;;12.80;99.90;;;;;;5091835;28;20310;-68
2022/04/18 00:11:59;;;;;;;;;;;12.80;99.90;;;;;;5091890;28;20393;-68
2022/04/18 00:14:25;;;;;;;;;;;12.80;99.90;;;;;;5091833;28;19908;-68
2022/04/18 00:16:51;;;;;;;;;;;12.90;99.90;;;;;;5091957;28;20374;-68
2022/04/18 00:19:17;;;;;;;;;;;12.80;99.90;;;;;;5091760;28;19908;-68
2022/04/18 00:21:43;;;;;;;;;;;12.80;99.90;;;;;;5091047;28;19942;-68
2022/04/18 00:24:13;;;;;;;;;;;12.80;99.90;;;;;;5091617;28;19970;-68
2022/04/18 00:26:40;;;;;;;;;;;12.80;99.90;;;;;;5091655;28;19953;-69
2022/04/18 00:29:06;;;;;;;;;;;12.80;99.90;;;;;;5091586;28;19923;-68
2022/04/18 00:31:32;;;;;;;;;;;12.80;99.90;;;;;;5073804;28;19997;-68
2022/04/18 00:33:58;;;;;;;;;;;12.80;99.90;;;;;;5091434;28;20352;-68
2022/04/18 00:36:24;;;;;;;;;;;12.70;99.90;;;;;;5091235;28;19908;-67
2022/04/18 00:38:49;;;;;;;;;;;12.70;99.90;;;;;;5091628;28;19958;-69
2022/04/18 00:41:15;;;;;;;;;;;12.80;99.90;;;;;;5091267;28;19923;-68
2022/04/18 00:43:48;;;;;;;;;;;12.70;99.90;;;;;;5090780;28;19912;-68
2022/04/18 00:46:15;;;;;;;;;;;12.80;99.90;;;;;;5091260;28;19966;-69
2022/04/18 00:48:41;;;;;;;;;;;12.80;99.90;;;;;;5091049;28;20019;-69
2022/04/18 00:51:09;;;;;;;;;;;12.80;99.90;;;;;;5090895;28;19914;-68
2022/04/18 00:53:36;;;;;;;;;;;12.80;99.90;;;;;;5091258;28;19942;-68
2022/04/18 00:56:02;;;;;;;;;;;12.80;99.90;;;;;;5091245;28;19968;-68
2022/04/18 00:58:28;;;;;;;;;;;12.80;99.90;;;;;;5091085;28;19916;-68
2022/04/18 01:00:54;;;;;;;;;;;12.80;99.90;;;;;;5090926;28;19908;-69
2022/04/18 01:03:28;;;;;;;;;;;12.80;99.90;;;;;;5091103;28;19912;-67
2022/04/18 01:05:54;;;;;;;;;;;12.80;99.90;;;;;;5090736;28;19912;-67
2022/04/18 01:08:19;;;;;;;;;;;12.80;99.90;;;;;;5090787;28;20277;-69
2022/04/18 01:10:45;;;;;;;;;;;12.70;99.90;;;;;;5091112;28;19958;-67
2022/04/18 01:13:12;;;;;;;;;;;12.70;99.90;;;;;;5072341;28;19966;-68
2022/04/18 01:15:37;;;;;;;;;;;12.70;99.90;;;;;;5090693;28;20320;-68
2022/04/18 01:18:03;;;;;;;;;;;12.70;99.90;;;;;;5090922;28;19919;-67
2022/04/18 01:20:34;;;;;;;;;;;12.70;99.90;;;;;;5090777;28;19909;-68
2022/04/18 01:23:00;;;;;;;;;;;12.70;99.90;;;;;;5090560;28;19970;-68
2022/04/18 01:30:55;;;;;;;;;;;12.70;99.90;;;;;;5090336;28;19965;-68
2022/04/18 01:33:21;;;;;;;;;;;12.70;99.90;;;;;;5088685;28;19912;-68
2022/04/18 01:35:47;;;;;;;;;;;12.70;99.90;;;;;;5090396;28;20101;-68
2022/04/18 01:38:13;;;;;;;;;;;12.70;99.90;;;;;;5090360;28;19974;-67
2022/04/18 01:40:39;;;;;;;;;;;12.80;99.90;;;;;;5090532;28;19908;-68
2022/04/18 01:43:05;;;;;;;;;;;12.80;99.90;;;;;;5090493;28;19998;-68
2022/04/18 01:45:31;;;;;;;;;;;12.70;99.90;;;;;;5090342;28;19958;-68
2022/04/18 01:47:57;;;;;;;;;;;12.80;99.90;;;;;;5090102;28;19951;-68
2022/04/18 01:50:23;;;;;;;;;;;12.80;99.90;;;;;;5090105;28;19916;-67
2022/04/18 01:52:49;;;;;;;;;;;12.80;99.90;;;;;;5089958;28;20449;-68
2022/04/18 01:55:15;;;;;;;;;;;12.90;99.90;;;;;;5090308;28;20370;-68
2022/04/18 01:57:40;;;;;;;;;;;12.90;99.90;;;;;;5089968;28;19908;-68
2022/04/18 02:00:06;;;;;;;;;;;12.90;99.90;;;;;;5090252;28;19919;-68
2022/04/18 02:02:32;;;;;;;;;;;13.00;99.90;;;;;;5090179;28;19908;-67
2022/04/18 02:05:00;;;;;;;;;;;13.00;99.90;;;;;;5089972;28;19920;-68
2022/04/18 02:07:26;;;;;;;;;;;12.90;99.90;;;;;;5089067;28;20348;-62
2022/04/18 02:09:52;;;;;;;;;;;12.80;99.90;;;;;;5081241;28;19916;-68
2022/04/18 02:12:18;;;;;;;;;;;12.80;99.90;;;;;;5090077;28;19915;-68
2022/04/18 02:14:43;;;;;;;;;;;12.70;99.90;;;;;;5089992;28;19920;-67
2022/04/18 02:17:09;;;;;;;;;;;12.80;99.90;;;;;;5090298;28;20348;-68
2022/04/18 02:19:35;;;;;;;;;;;12.70;99.90;;;;;;5090175;28;19908;-68
2022/04/18 02:22:01;;;;;;;;;;;12.70;99.90;;;;;;5089983;28;20316;-68
2022/04/18 02:24:27;;;;;;;;;;;12.70;99.90;;;;;;5090230;28;19908;-68
2022/04/18 02:26:52;;;;;;;;;;;12.50;99.90;;;;;;5089968;28;19916;-68
2022/04/18 02:29:18;;;;;;;;;;;12.50;99.90;;;;;;5090180;28;19916;-68
2022/04/18 02:34:28;;;;;;;;;;;12.50;99.90;;;;;;5089969;28;19916;-70
2022/04/18 02:36:54;;;;;;;;;;;12.40;99.90;;;;;;5090086;28;19908;-69
2022/04/18 02:39:20;;;;;;;;;;;12.50;99.90;;;;;;5089927;28;20221;-68
2022/04/18 02:41:45;;;;;;;;;;;12.50;99.90;;;;;;5089686;28;19918;-67
2022/04/18 02:44:11;;;;;;;;;;;12.60;99.90;;;;;;5072192;28;19919;-68
2022/04/18 02:46:37;;;;;;;;;;;12.60;99.90;;;;;;5093761;28;20386;-63
2022/04/18 02:49:03;;;;;;;;;;;12.60;99.90;;;;;;5093510;28;19920;-68
2022/04/18 02:51:29;;;;;;;;;;;12.60;99.90;;;;;;5093215;28;19954;-68
2022/04/18 02:53:55;;;;;;;;;;;12.50;99.90;;;;;;5093561;28;20293;-68
2022/04/18 02:56:21;;;;;;;;;;;12.50;99.90;;;;;;5074853;28;19909;-68
2022/04/18 02:58:47;;;;;;;;;;;12.50;99.90;;;;;;5093332;28;19954;-68
2022/04/18 03:01:13;;;;;;;;;;;12.50;99.90;;;;;;5093124;28;19908;-68
2022/04/18 03:03:38;;;;;;;;;;;12.60;99.90;;;;;;5093570;28;19918;-66
2022/04/18 03:06:05;;;;;;;;;;;12.50;99.90;;;;;;5091919;28;19912;-68
2022/04/18 03:08:31;;;;;;;;;;;12.20;99.90;;;;;;5092788;28;20251;-68
2022/04/18 03:11:04;;;;;;;;;;;12.30;99.90;;;;;;5074904;28;20267;-67
2022/04/18 03:13:32;;;;;;;;;;;12.40;99.90;;;;;;5093314;28;20042;-68
2022/04/18 03:15:58;;;;;;;;;;;12.40;99.90;;;;;;5092793;28;19916;-68
2022/04/18 03:18:24;;;;;;;;;;;12.50;99.90;;;;;;5092891;28;19972;-67
2022/04/18 03:20:50;;;;;;;;;;;12.50;99.90;;;;;;5092786;28;19935;-68
2022/04/18 03:23:16;;;;;;;;;;;12.50;99.90;;;;;;5093770;28;20336;-63
2022/04/18 03:25:42;;;;;;;;;;;12.60;99.90;;;;;;5092344;28;19963;-68
2022/04/18 03:28:09;;;;;;;;;;;12.70;99.90;;;;;;5092704;28;19960;-68
2022/04/18 03:30:35;;;;;;;;;;;12.60;99.90;;;;;;5092608;28;20368;-68
2022/04/18 03:33:01;;;;;;;;;;;12.60;99.90;;;;;;5092906;28;19932;-67
2022/04/18 03:35:27;;;;;;;;;;;12.70;99.90;;;;;;5092582;28;19912;-68
2022/04/18 03:40:37;;;;;;;;;;;12.70;99.90;;;;;;5093105;28;19965;-68
2022/04/18 03:43:03;;;;;;;;;;;12.60;99.90;;;;;;5092414;28;19912;-66
2022/04/18 03:45:29;;;;;;;;;;;12.50;99.90;;;;;;5092689;28;19935;-68
2022/04/18 03:47:55;;;;;;;;;;;12.60;99.90;;;;;;5092326;28;19951;-68
2022/04/18 03:50:21;;;;;;;;;;;12.50;99.90;;;;;;5092543;28;19924;-68
2022/04/18 03:52:46;;;;;;;;;;;12.60;99.90;;;;;;5092206;28;19999;-67
2022/04/18 03:55:12;;;;;;;;;;;12.60;99.90;;;;;;5092133;28;19961;-68
2022/04/18 03:57:38;;;;;;;;;;;12.50;99.90;;;;;;5073550;28;19953;-66
2022/04/18 04:00:08;;;;;;;;;;;12.50;99.90;;;;;;5092142;28;20363;-68
2022/04/18 04:02:33;;;;;;;;;;;12.40;99.90;;;;;;5092237;28;19912;-66
2022/04/18 04:04:59;;;;;;;;;;;12.30;99.90;;;;;;5092062;28;19995;-68
2022/04/18 04:07:25;;;;;;;;;;;12.30;99.90;;;;;;5091930;28;19908;-68
2022/04/18 04:09:53;;;;;;;;;;;12.30;99.90;;;;;;5091870;28;19916;-68
2022/04/18 04:12:26;;;;;;;;;;;12.30;99.90;;;;;;5091843;28;20335;-68
2022/04/18 04:14:55;;;;;;;;;;;12.20;99.90;;;;;;5091735;28;19908;-68
2022/04/18 04:17:26;;;;;;;;;;;12.30;99.90;;;;;;5091873;28;19915;-68
2022/04/18 04:20:28;;;;;;;;;;;12.30;99.90;;;;;;5090745;28;19957;-63
2022/04/18 04:26:07;;;;;;;;;;;12.30;99.90;;;;;;5029136;28;19967;-68
2022/04/18 04:28:33;;;;;;;;;;;12.40;99.90;;;;;;5029251;28;19913;-69
2022/04/18 04:30:59;;;;;;;;;;;12.40;99.90;;;;;;5029264;28;19952;-68
2022/04/18 04:33:25;;;;;;;;;;;12.30;99.90;;;;;;5029011;28;19910;-68
2022/04/18 04:35:51;;;;;;;;;;;12.10;99.90;;;;;;5028757;28;20475;-68
2022/04/18 04:38:17;;;;;;;;;;;12.10;99.90;;;;;;5012782;28;20428;-68
2022/04/18 04:40:44;;;;;;;;;;;12.10;99.90;;;;;;5029052;28;19974;-68
2022/04/18 04:43:10;;;;;;;;;;;12.10;99.90;;;;;;5029247;28;19909;-68
2022/04/18 04:45:36;;;;;;;;;;;12.20;99.90;;;;;;5028745;28;19909;-67
2022/04/18 04:48:02;;;;;;;;;;;12.20;99.90;;;;;;5028932;28;19960;-67
2022/04/18 04:50:29;;;;;;;;;;;12.20;99.90;;;;;;5028719;28;19917;-67
2022/04/18 04:52:55;;;;;;;;;;;12.30;99.90;;;;;;5028383;28;19928;-67
2022/04/18 04:55:21;;;;;;;;;;;12.30;99.90;;;;;;5028906;28;19921;-68
2022/04/18 04:57:46;;;;;;;;;;;12.40;99.90;;;;;;5028675;28;19910;-67
2022/04/18 05:00:12;;;;;;;;;;;12.40;99.90;;;;;;5028503;28;19909;-68
2022/04/18 05:02:38;;;;;;;;;;;12.50;99.90;;;;;;5063709;28;19919;-67
2022/04/18 05:05:04;;;;;;;;;;;12.60;99.90;;;;;;5091142;28;19912;-67
2022/04/18 05:07:30;;;;;;;;;;;12.70;99.90;;;;;;5091075;28;19961;-67
2022/04/18 05:09:56;;;;;;;;;;;12.90;99.90;;;;;;5091158;28;20022;-67
2022/04/18 05:12:21;;;;;;;;;;;12.90;99.90;;;;;;5091018;28;20263;-67
2022/04/18 05:14:47;;;;;;;;;;;13.00;99.90;;;;;;5090834;28;20014;-67
2022/04/18 05:17:13;;;;;;;;;;;13.10;99.90;;;;;;5090543;28;19915;-67
2022/04/18 05:19:39;;;;;;;;;;;13.70;99.80;;;;;;5090936;28;19960;-67
2022/04/18 05:22:05;;;;;;;;;;;15.00;97.90;;;;;;5090613;28;19961;-66
2022/04/18 05:24:30;;;;;;;;;;;16.90;94.80;;;;;;5090635;28;20198;-68
2022/04/18 05:26:56;;;;;;;;;;;18.90;92.40;;;;;;5090733;28;19923;-67
2022/04/18 05:29:22;;;;;;;;;;;20.90;88.90;;;;;;5090660;28;20413;-68
2022/04/18 05:31:48;;;;;;;;;;;22.60;83.10;;;;;;5090720;28;19995;-68
2022/04/18 05:34:13;;;;;;;;;;;23.30;79.60;;;;;;5090838;28;19965;-69
2022/04/18 05:36:39;;;;;;;;;;;24.20;76.70;;;;;;5090824;28;20018;-68
2022/04/18 05:39:05;;;;;;;;;;;24.00;75.40;;;;;;5090544;28;19963;-68
2022/04/18 05:41:31;;;;;;;;;;;23.90;75.50;;;;;;5090345;28;19974;-70
2022/04/18 05:43:56;;;;;;;;;;;25.30;73.00;;;;;;5090733;28;19914;-68
2022/04/18 05:46:24;;;;;;;;;;;25.50;70.10;;;;;;5090387;28;19977;-69
2022/04/18 05:48:50;;;;;;;;;;;25.00;71.70;;;;;;5090644;28;19935;-69
2022/04/18 05:51:16;;;;;;;;;;;25.80;70.70;;;;;;5090352;28;19908;-69
2022/04/18 05:53:41;;;;;;;;;;;27.10;68.60;;;;;;5090010;28;19920;-70
2022/04/18 05:56:07;;;;;;;;;;;27.50;65.80;;;;;;5072017;28;20293;-69
2022/04/18 05:58:35;;;;;;;;;;;27.80;64.90;;;;;;5090590;28;19909;-69
2022/04/18 06:01:01;;;;;;;;;;;27.90;65.20;;;;;;5090055;28;20256;-69
2022/04/18 06:03:27;;;;;;;;;;;27.70;65.00;;;;;;5090321;28;20347;-68
2022/04/18 06:05:52;;;;;;;;;;;28.40;64.70;;;;;;5090245;28;19908;-69
2022/04/18 06:08:18;;;;;;;;;;;27.70;63.40;;;;;;5089938;28;19923;-68
2022/04/18 06:10:44;;;;;;;;;;;28.30;63.20;;;;;;5089830;28;19923;-68
2022/04/18 06:13:10;;;;;;;;;;;28.50;63.00;;;;;;5090012;28;19961;-68
2022/04/18 06:15:37;;;;;;;;;;;27.60;63.50;;;;;;5090264;28;19923;-68
2022/04/18 06:18:02;;;;;;;;;;;28.30;63.60;;;;;;5090299;28;19932;-69
2022/04/18 06:20:28;;;;;;;;;;;29.10;62.50;;;;;;5093743;28;20303;-68
2022/04/18 06:22:54;;;;;;;;;;;30.30;60.70;;;;;;5093820;28;19954;-69
2022/04/18 06:25:20;;;;;;;;;;;29.80;60.00;;;;;;5094617;28;20271;-69
2022/04/18 06:27:46;;;;;;;;;;;30.90;60.00;;;;;;5094485;28;19919;-69
2022/04/18 06:30:11;;;;;;;;;;;32.20;58.50;;;;;;5094481;28;19923;-70
2022/04/18 06:32:37;;;;;;;;;;;33.30;57.00;;;;;;5094627;28;20474;-69
2022/04/18 06:35:04;;;;;;;;;;;33.50;55.50;;;;;;5094512;28;19919;-70
2022/04/18 06:37:30;;;;;;;;;;;33.80;54.90;;;;;;5095027;28;19908;-70
2022/04/18 06:39:56;;;;;;;;;;;33.70;53.80;;;;;;5094339;28;20030;-70
2022/04/18 06:42:21;;;;;;;;;;;34.00;53.90;;;;;;5094349;28;19951;-64
2022/04/18 06:44:47;;;;;;;;;;;34.10;52.80;;;;;;5094365;28;20010;-69
2022/04/18 06:47:13;;;;;;;;;;;33.70;53.50;;;;;;5094463;28;19919;-68
2022/04/18 06:49:39;;;;;;;;;;;33.70;52.50;;;;;;5093964;28;19963;-70
2022/04/18 06:52:22;;;;;;;;;;;34.00;52.40;;;;;;5093802;28;20032;-70
2022/04/18 06:54:48;;;;;;;;;;;33.50;52.40;;;;;;5094329;28;19912;-70
2022/04/18 06:57:14;;;;;;;;;;;32.40;52.50;;;;;;5093856;28;20387;-70
2022/04/18 06:59:40;;;;;;;;;;;31.50;53.40;;;;;;5093910;28;19998;-70
2022/04/18 07:02:06;;;;;;;;;;;30.90;55.00;;;;;;5094368;28;19962;-70
2022/04/18 07:04:31;;;;;;;;;;;30.60;54.30;;;;;;5093606;28;19916;-70
2022/04/18 07:06:57;;;;;;;;;;;29.70;55.30;;;;;;5093725;28;20418;-70
2022/04/18 07:09:35;;;;;;;;;;;29.80;55.80;;;;;;5093626;28;19923;-71
2022/04/18 07:12:01;;;;;;;;;;;29.90;55.80;;;;;;5093843;28;19908;-70
2022/04/18 07:14:27;;;;;;;;;;;30.40;53.40;;;;;;5093601;28;19915;-70
2022/04/18 07:16:53;;;;;;;;;;;30.90;53.50;;;;;;5093444;28;19908;-70
2022/04/18 07:19:19;;;;;;;;;;;29.00;53.20;;;;;;5093280;28;20383;-70
2022/04/18 07:21:45;;;;;;;;;;;27.90;55.80;;;;;;5093359;28;19912;-69
2022/04/18 07:24:11;;;;;;;;;;;27.70;57.70;;;;;;5093486;28;19912;-70
2022/04/18 07:26:37;;;;;;;;;;;27.60;56.80;;;;;;5091097;28;19928;-69
2022/04/18 07:29:03;;;;;;;;;;;26.20;57.90;;;;;;5092910;28;19958;-70
2022/04/18 07:31:29;;;;;;;;;;;25.20;59.00;;;;;;5092038;28;19908;-70
2022/04/18 07:33:54;;;;;;;;;;;24.50;59.90;;;;;;5093147;28;20386;-70
2022/04/18 07:36:20;;;;;;;;;;;23.40;61.70;;;;;;5074529;28;20348;-69
2022/04/18 07:38:49;;;;;;;;;;;22.40;64.00;;;;;;5092805;28;19928;-70
2022/04/18 07:41:21;;;;;;;;;;;21.70;65.30;;;;;;5075134;28;19930;-69
2022/04/18 07:43:48;;;;;;;;;;;21.40;66.80;;;;;;5092779;28;19909;-69
2022/04/18 07:46:17;;;;;;;;;;;20.90;67.60;;;;;;5091735;28;20389;-70
2022/04/18 07:48:43;;;;;;;;;;;21.30;68.00;;;;;;5092509;28;19916;-69
2022/04/18 07:53:54;;;;;;;;;;;21.40;66.50;;;;;;5092652;28;19923;-70
2022/04/18 07:56:20;;;;;;;;;;;21.40;66.20;;;;;;5092497;28;19909;-70
2022/04/18 07:58:46;;;;;;;;;;;21.40;66.50;;;;;;5092971;28;20344;-70
2022/04/18 08:01:12;;;;;;;;;;;21.70;66.80;;;;;;5092618;28;19919;-70
2022/04/18 08:03:38;;;;;;;;;;;21.70;65.90;;;;;;5092592;28;19924;-70
2022/04/18 08:06:04;;;;;;;;;;;21.80;67.10;;;;;;5091920;28;19908;-70
2022/04/18 08:08:30;;;;;;;;;;;21.50;67.60;;;;;;5092299;28;19919;-72
2022/04/18 08:10:57;;;;;;;;;;;21.70;67.50;;;;;;5092719;28;19912;-70
2022/04/18 08:13:23;;;;;;;;;;;21.90;67.20;;;;;;5092322;28;19908;-70
2022/04/18 08:15:48;;;;;;;;;;;21.10;68.50;;;;;;5092524;28;19915;-70
2022/04/18 08:18:14;;;;;;;;;;;21.10;69.30;;;;;;5094161;28;19912;-69
2022/04/18 08:20:40;;;;;;;;;;;21.20;69.50;;;;;;5094021;28;19915;-70
2022/04/18 08:23:06;;;;;;;;;;;21.20;70.00;;;;;;5093653;28;19932;-70
2022/04/18 08:25:32;;;;;;;;;;;21.30;69.60;;;;;;5093938;28;19909;-70
2022/04/18 08:27:59;;;;;;;;;;;21.30;70.00;;;;;;5076379;28;19908;-70
2022/04/18 08:30:24;;;;;;;;;;;21.20;70.80;;;;;;5093472;28;19928;-70
2022/04/18 08:32:50;;;;;;;;;;;20.80;69.30;;;;;;5093454;28;19908;-71
2022/04/18 08:35:16;;;;;;;;;;;20.90;69.60;;;;;;5093438;28;20009;-75
2022/04/18 08:37:51;;;;;;;;;;;20.60;70.20;;;;;;5074798;28;19996;-72
2022/04/18 08:40:18;;;;;;;;;;;20.60;69.10;;;;;;5093448;28;19915;-71
2022/04/18 08:42:44;;;;;;;;;;;20.40;69.30;;;;;;5092949;28;19948;-71
2022/04/18 08:45:12;;;;;;;;;;;20.40;70.20;;;;;;5074542;28;19997;-70
2022/04/18 08:53:12;;;;;;;;;;;19.80;71.70;;;;;;5091956;28;19931;-73
2022/04/18 08:55:38;;;;;;;;;;;20.30;73.30;;;;;;5092488;28;19938;-70
2022/04/18 08:58:04;;;;;;;;;;;20.70;72.90;;;;;;5092319;28;19908;-71
2022/04/18 09:00:30;;;;;;;;;;;20.90;72.80;;;;;;5092119;28;19908;-69
2022/04/18 09:02:56;;;;;;;;;;;20.80;72.80;;;;;;5083024;28;19920;-70
2022/04/18 09:05:23;;;;;;;;;;;20.40;74.00;;;;;;5092261;28;20343;-69
2022/04/18 09:07:59;;;;;;;;;;;19.20;78.10;;;;;;5092383;28;19910;-70
2022/04/18 09:10:25;;;;;;;;;;;18.90;79.70;;;;;;5092629;28;19961;-71
2022/04/18 09:12:51;;;;;;;;;;;18.90;80.20;;;;;;5091906;28;19909;-70
2022/04/18 09:15:30;;;;;;;;;;;18.80;81.50;;;;;;5091700;28;20351;-70
2022/04/18 09:18:05;;;;;;;;;;;18.80;82.60;;;;;;5091339;28;19915;-70
2022/04/18 09:20:39;;;;;;;;;;;18.60;83.00;;;;;;5091839;28;19919;-64
2022/04/18 09:23:05;;;;;;;;;;;18.60;83.20;;;;;;5092183;28;20003;-69
2022/04/18 09:25:36;;;;;;;;;;;18.70;83.50;;;;;;5092361;28;19908;-69
2022/04/18 09:28:02;;;;;;;;;;;18.60;83.40;;;;;;5091889;28;19908;-70
2022/04/18 09:30:32;;;;;;;;;;;18.70;82.80;;;;;;5090124;28;19973;-66
2022/04/18 09:33:02;;;;;;;;;;;18.90;82.40;;;;;;5085012;28;19912;-65
2022/04/18 09:35:28;;;;;;;;;;;19.10;82.30;;;;;;5071824;28;19908;-69
2022/04/18 09:37:58;;;;;;;;;;;19.10;81.00;;;;;;5071640;28;19948;-70
2022/04/18 09:40:24;;;;;;;;;;;18.90;81.70;;;;;;5071461;28;19971;-69
2022/04/18 09:42:56;;;;;;;;;;;18.50;83.70;;;;;;5071601;28;19916;-71
2022/04/18 09:45:22;;;;;;;;;;;18.40;85.10;;;;;;5071474;28;19931;-70
2022/04/18 09:47:54;;;;;;;;;;;18.60;84.60;;;;;;5071798;28;19912;-70
2022/04/18 09:53:06;;;;;;;;;;;18.40;84.40;;;;;;5071242;28;19978;-70
2022/04/18 09:55:32;;;;;;;;;;;18.50;84.70;;;;;;5070617;28;20261;-71
2022/04/18 09:58:04;;;;;;;;;;;18.40;84.50;;;;;;5053335;28;19975;-70
2022/04/18 10:00:30;;;;;;;;;;;18.40;85.20;;;;;;5071746;28;19908;-70
2022/04/18 10:02:59;;;;;;;;;;;18.40;85.50;;;;;;5071556;28;19972;-69
2022/04/18 10:05:25;;;;;;;;;;;18.40;85.60;;;;;;5069763;28;19966;-70
2022/04/18 10:07:52;;;;;;;;;;;18.50;84.70;;;;;;5071214;28;20244;-69
2022/04/18 10:10:18;;;;;;;;;;;18.70;85.10;;;;;;5071362;28;19916;-70
2022/04/18 10:12:43;;;;;;;;;;;18.60;85.00;;;;;;5071157;28;19908;-69
2022/04/18 10:15:09;;;;;;;;;;;18.50;84.50;;;;;;5071491;28;20351;-70
2022/04/18 10:17:38;;;;;;;;;;;18.40;85.10;;;;;;5071143;28;19955;-69
2022/04/18 10:20:10;;;;;;;;;;;18.50;84.50;;;;;;5071571;28;19989;-70
2022/04/18 10:22:59;;;;;;;;;;;18.80;83.90;;;;;;5071384;28;19908;-69
2022/04/18 10:25:34;;;;;;;;;;;19.00;84.60;;;;;;5071306;28;19928;-70
2022/04/18 10:27:59;;;;;;;;;;;19.70;82.80;;;;;;5053085;28;19954;-70
2022/04/18 10:30:26;;;;;;;;;;;19.50;81.30;;;;;;5071108;28;20016;-69
2022/04/18 10:32:52;;;;;;;;;;;19.80;80.90;;;;;;5071029;28;19923;-70
2022/04/18 10:35:21;;;;;;;;;;;20.00;81.30;;;;;;5071442;28;19921;-69
2022/04/18 10:37:51;;;;;;;;;;;20.30;80.40;;;;;;5071268;28;20007;-70
2022/04/18 10:40:18;;;;;;;;;;;20.10;78.30;;;;;;5071072;28;19909;-69
2022/04/18 10:42:44;;;;;;;;;;;20.10;78.70;;;;;;5071468;28;19909;-70
2022/04/18 10:45:16;;;;;;;;;;;19.70;77.00;;;;;;5070994;28;19986;-70
2022/04/18 10:48:01;;;;;;;;;;;19.40;77.60;;;;;;5071019;28;19909;-69
2022/04/18 10:50:51;;;;;;;;;;;19.30;75.40;;;;;;5070952;28;19960;-70
2022/04/18 10:53:18;;;;;;;;;;;18.60;78.20;;;;;;5070887;28;19920;-70
2022/04/18 10:55:53;;;;;;;;;;;18.60;78.10;;;;;;5070974;28;19909;-70
2022/04/18 10:58:23;;;;;;;;;;;18.40;79.20;;;;;;5070929;28;20367;-70
2022/04/18 11:00:58;;;;;;;;;;;18.50;78.50;;;;;;5070935;28;19992;-69
2022/04/18 11:03:36;;;;;;;;;;;18.70;75.90;;;;;;5070962;28;19916;-70
2022/04/18 11:06:32;;;;;;;;;;;18.90;75.40;;;;;;5073188;28;20322;-70
2022/04/18 11:09:08;;;;;;;;;;;19.20;74.80;;;;;;5074223;28;19991;-70
2022/04/18 11:11:34;;;;;;;;;;;19.50;73.60;;;;;;5074604;28;19975;-70
2022/04/18 11:14:00;;;;;;;;;;;19.50;74.10;;;;;;5074272;28;19913;-70
2022/04/18 11:16:26;;;;;;;;;;;19.60;75.60;;;;;;5074408;28;19909;-70
2022/04/18 11:19:05;;;;;;;;;;;19.80;77.40;;;;;;5074356;28;19908;-71
2022/04/18 11:21:49;;;;;;;;;;;19.60;79.50;;;;;;5074195;28;20233;-69
2022/04/18 11:24:36;;;;;;;;;;;19.50;81.00;;;;;;5074704;28;20243;-69
2022/04/18 11:27:12;;;;;;;;;;;19.50;82.10;;;;;;5056070;28;19991;-70
2022/04/18 11:29:39;;;;;;;;;;;19.10;82.80;;;;;;5074667;28;19916;-69
2022/04/18 11:32:06;;;;;;;;;;;19.10;83.00;;;;;;5074018;28;20010;-69
2022/04/18 11:34:32;;;;;;;;;;;19.00;83.40;;;;;;5074512;28;19908;-69
2022/04/18 11:36:59;;;;;;;;;;;18.70;84.70;;;;;;5055720;28;19955;-69
2022/04/18 11:39:46;;;;;;;;;;;18.60;84.70;;;;;;5055729;28;20006;-70
2022/04/18 11:42:16;;;;;;;;;;;18.60;84.40;;;;;;5073487;28;20279;-70
2022/04/18 11:44:42;;;;;;;;;;;18.30;85.20;;;;;;5073826;28;19919;-70
2022/04/18 11:47:09;;;;;;;;;;;18.10;85.20;;;;;;5055763;28;20257;-69
2022/04/18 11:49:35;;;;;;;;;;;17.90;86.50;;;;;;5074012;28;20252;-69
2022/04/18 11:52:02;;;;;;;;;;;17.80;86.50;;;;;;5073879;28;20415;-69
2022/04/18 11:54:28;;;;;;;;;;;17.80;89.00;;;;;;5073694;28;19920;-69
2022/04/18 11:56:58;;;;;;;;;;;17.50;90.90;;;;;;5073525;28;20370;-71
2022/04/18 11:59:30;;;;;;;;;;;16.70;93.10;;;;;;5073626;28;19908;-69
2022/04/18 12:07:31;;;;;;;;;;;16.70;95.70;;;;;;5042204;28;19909;-70
2022/04/18 12:09:57;;;;;;;;;;;16.90;96.50;;;;;;5073817;28;19920;-69
2022/04/18 12:12:27;;;;;;;;;;;17.10;96.60;;;;;;5073696;28;19924;-69
2022/04/18 12:14:54;;;;;;;;;;;17.50;96.60;;;;;;5073328;28;20019;-70
2022/04/18 12:17:20;;;;;;;;;;;17.90;95.90;;;;;;5072981;28;19944;-69
2022/04/18 12:19:46;;;;;;;;;;;18.30;95.70;;;;;;5073324;28;19908;-69
2022/04/18 12:22:22;;;;;;;;;;;18.70;95.30;;;;;;5073729;28;19916;-70
2022/04/18 12:24:48;;;;;;;;;;;19.00;94.20;;;;;;5073120;28;20306;-69
2022/04/18 12:27:16;;;;;;;;;;;19.10;94.00;;;;;;5073234;28;20271;-69
2022/04/18 12:29:42;;;;;;;;;;;19.00;93.40;;;;;;5072960;28;19985;-69
2022/04/18 12:32:23;;;;;;;;;;;18.80;92.50;;;;;;5073001;28;19916;-69
2022/04/18 12:34:50;;;;;;;;;;;18.70;93.30;;;;;;5073284;28;19915;-69
2022/04/18 12:37:17;;;;;;;;;;;18.50;92.80;;;;;;5037731;28;20236;-70
2022/04/18 12:39:43;;;;;;;;;;;18.30;92.80;;;;;;5073276;28;20364;-69
2022/04/18 12:42:13;;;;;;;;;;;18.30;91.20;;;;;;5072830;28;19909;-69
2022/04/18 12:44:41;;;;;;;;;;;18.40;90.40;;;;;;5072406;28;19947;-69
2022/04/18 12:47:18;;;;;;;;;;;18.60;92.40;;;;;;5072303;28;19915;-69
2022/04/18 12:50:02;;;;;;;;;;;18.80;93.00;;;;;;5072495;28;20011;-70
2022/04/18 12:52:28;;;;;;;;;;;19.10;93.50;;;;;;5072164;28;20003;-69
2022/04/18 12:55:05;;;;;;;;;;;19.30;93.10;;;;;;5072438;28;20031;-69
2022/04/18 12:57:31;;;;;;;;;;;19.40;93.20;;;;;;5054363;28;19912;-69
2022/04/18 13:00:23;;;;;;;;;;;19.00;93.40;;;;;;5072418;28;20011;-69
2022/04/18 13:03:03;;;;;;;;;;;19.20;93.10;;;;;;5068270;28;20006;-70
2022/04/18 13:05:30;;;;;;;;;;;19.40;92.20;;;;;;5072134;28;20374;-69
2022/04/18 13:07:56;;;;;;;;;;;19.30;93.00;;;;;;5072290;28;19913;-68
2022/04/18 13:10:29;;;;;;;;;;;19.30;93.00;;;;;;5072017;28;19916;-69
2022/04/18 13:13:11;;;;;;;;;;;19.20;93.20;;;;;;5072363;28;19912;-68
2022/04/18 13:15:39;;;;;;;;;;;19.40;92.50;;;;;;5072117;28;20303;-69
2022/04/18 13:18:12;;;;;;;;;;;19.50;91.90;;;;;;5072146;28;19912;-69
2022/04/18 13:20:39;;;;;;;;;;;19.80;91.80;;;;;;5071915;28;19915;-69
2022/04/18 13:23:06;;;;;;;;;;;20.00;91.00;;;;;;5071818;28;20417;-68
2022/04/18 13:25:32;;;;;;;;;;;20.20;90.50;;;;;;5072219;28;19910;-69
2022/04/18 13:27:58;;;;;;;;;;;20.30;90.30;;;;;;5053360;28;19908;-69
2022/04/18 13:30:24;;;;;;;;;;;20.20;90.00;;;;;;5071348;28;19971;-69
2022/04/18 13:32:51;;;;;;;;;;;20.30;86.20;;;;;;5071499;28;20198;-69
2022/04/18 13:35:17;;;;;;;;;;;19.90;83.60;;;;;;5071431;28;19908;-69
2022/04/18 13:37:44;;;;;;;;;;;19.60;82.80;;;;;;5070535;28;20057;-69
2022/04/18 13:40:11;;;;;;;;;;;19.20;82.50;;;;;;5071280;28;19912;-69
2022/04/18 13:42:37;;;;;;;;;;;18.70;77.30;;;;;;5071202;28;19908;-68
2022/04/18 13:45:03;;;;;;;;;;;18.50;77.00;;;;;;5071515;28;20249;-69
2022/04/18 13:47:28;;;;;;;;;;;18.00;79.10;;;;;;5070528;28;19909;-69
2022/04/18 13:49:54;;;;;;;;;;;17.80;79.70;;;;;;5070765;28;19923;-69
2022/04/18 13:52:20;;;;;;;;;;;17.70;80.10;;;;;;5070254;28;19982;-69
2022/04/18 13:54:46;;;;;;;;;;;17.70;81.30;;;;;;5070547;28;19964;-68
2022/04/18 13:57:12;;;;;;;;;;;17.90;81.50;;;;;;5070528;28;19916;-69
2022/04/18 13:59:38;;;;;;;;;;;18.20;81.00;;;;;;5070696;28;20320;-69
2022/04/18 14:02:04;;;;;;;;;;;18.20;81.80;;;;;;5070280;28;19908;-69
2022/04/18 14:04:30;;;;;;;;;;;17.80;79.30;;;;;;5070654;28;19909;-68
2022/04/18 14:06:56;;;;;;;;;;;17.70;79.10;;;;;;5052537;28;19913;-69
2022/04/18 14:09:23;;;;;;;;;;;17.40;80.50;;;;;;5070137;28;19920;-68
2022/04/18 14:11:48;;;;;;;;;;;17.30;80.30;;;;;;5070633;28;20394;-68
2022/04/18 14:20:20;;;;;;;;;;;17.20;81.00;;;;;;5070127;28;19908;-69
2022/04/18 14:22:29;;;;;;;;;;;17.90;78.20;;;;;;5071808;28;19916;-69
2022/04/18 14:24:56;;;;;;;;;;;17.90;78.60;;;;;;5071187;28;20320;-69
2022/04/18 14:27:21;;;;;;;;;;;17.80;80.10;;;;;;5071383;28;19913;-69
2022/04/18 14:29:48;;;;;;;;;;;17.90;78.30;;;;;;5053033;28;20082;-68
2022/04/18 14:32:14;;;;;;;;;;;17.90;78.60;;;;;;5071398;28;19908;-69
2022/04/18 14:34:41;;;;;;;;;;;17.90;77.70;;;;;;5071211;28;20000;-69
2022/04/18 14:37:06;;;;;;;;;;;17.70;79.40;;;;;;5071330;28;19999;-68
2022/04/18 14:39:32;;;;;;;;;;;17.70;79.30;;;;;;5070984;28;20474;-69
2022/04/18 14:41:58;;;;;;;;;;;17.80;80.60;;;;;;5074399;28;19915;-69
2022/04/18 14:44:24;;;;;;;;;;;17.90;78.40;;;;;;5074511;28;19915;-69
2022/04/18 14:46:50;;;;;;;;;;;17.80;78.60;;;;;;5074490;28;20292;-69
2022/04/18 14:49:16;;;;;;;;;;;17.90;77.70;;;;;;5073425;28;19924;-68
2022/04/18 14:51:42;;;;;;;;;;;17.80;77.10;;;;;;5072733;28;19927;-69
2022/04/18 14:54:08;;;;;;;;;;;17.50;76.70;;;;;;5073405;28;19996;-69
2022/04/18 14:56:33;;;;;;;;;;;17.40;77.60;;;;;;5073220;28;19930;-69